Time;durP1;ratioP1;P1;durP2;ratioP2;P2;SDS_P1;SDS_P2;PMS_P1;PMS_P2;Temp;Humidity;BMP_temperature;BMP_pressure;BME280_temperature;BME280_humidity;BME280_pressure;Samples;Min_cycle;Max_cycle;Signal;HPM_P1;HPM_P2
2021/07/29 00:00:32;;;;;;;1.90;1.80;;;27.10;78.40;;;;;;4957340;29;20272;-84
2021/07/29 00:02:59;;;;;;;1.42;1.25;;;27.10;77.70;;;;;;4957321;29;20039;-82
2021/07/29 00:05:26;;;;;;;0.70;0.70;;;26.90;79.40;;;;;;4956921;29;20130;-84
2021/07/29 00:07:53;;;;;;;0.70;0.70;;;26.90;79.80;;;;;;4956726;29;20070;-85
2021/07/29 00:10:20;;;;;;;1.00;0.90;;;26.90;79.10;;;;;;4956602;29;20103;-83
2021/07/29 00:12:47;;;;;;;1.23;1.15;;;26.70;80.60;;;;;;4956655;29;20392;-85
2021/07/29 00:15:15;;;;;;;1.48;1.38;;;26.60;82.40;;;;;;4939470;29;20035;-85
2021/07/29 00:20:12;;;;;;;;;;;26.50;83.30;;;;;;4956934;29;20399;-79
2021/07/29 00:22:38;;;;;;;1.05;0.98;;;26.30;83.60;;;;;;4956463;29;19906;-85
2021/07/29 00:25:07;;;;;;;12.00;3.75;;;26.00;82.90;;;;;;4956477;29;20118;-82
2021/07/29 00:27:36;;;;;;;0.52;0.52;;;26.20;81.50;;;;;;4939356;29;20126;-82
2021/07/29 00:30:03;;;;;;;2.58;2.38;;;26.00;79.60;;;;;;4956596;29;20031;-83
2021/07/29 00:32:28;;;;;;;2.78;2.58;;;26.00;79.70;;;;;;4957015;29;20144;-83
2021/07/29 00:34:54;;;;;;;1.23;1.13;;;26.00;80.10;;;;;;4954877;28;20474;-87
2021/07/29 00:37:20;;;;;;;2.45;2.28;;;26.00;79.90;;;;;;4956406;29;20063;-88
2021/07/29 00:39:45;;;;;;;1.80;1.33;;;25.90;77.80;;;;;;4939106;29;20035;-84
2021/07/29 00:42:11;;;;;;;6.05;2.25;;;26.00;77.00;;;;;;4939168;29;20496;-81
2021/07/29 00:44:38;;;;;;;4.53;4.05;;;26.00;76.80;;;;;;4955678;29;20059;-82
2021/07/29 00:47:05;;;;;;;1.27;1.17;;;26.00;76.70;;;;;;4956612;29;20031;-84
2021/07/29 00:49:31;;;;;;;2.20;2.08;;;25.90;77.30;;;;;;4956028;29;20035;-83
2021/07/29 00:51:57;;;;;;;1.27;1.17;;;25.90;77.80;;;;;;4956263;29;20388;-79
2021/07/29 00:54:27;;;;;;;9.98;1.17;;;25.90;77.10;;;;;;4955836;29;20055;-89
2021/07/29 00:56:54;;;;;;;2.22;1.55;;;25.90;77.60;;;;;;4955700;28;20086;-85
2021/07/29 00:59:23;;;;;;;0.65;0.65;;;25.90;77.30;;;;;;4938980;29;20040;-81
2021/07/29 01:01:49;;;;;;;1.40;1.30;;;26.10;78.00;;;;;;4955669;29;20047;-85
2021/07/29 01:04:15;;;;;;;2.35;2.15;;;26.10;78.20;;;;;;4955690;29;20062;-86
2021/07/29 01:06:40;;;;;;;0.70;0.70;;;26.00;76.50;;;;;;4955817;29;20031;-81
2021/07/29 01:09:09;;;;;;;1.00;0.95;;;26.00;76.30;;;;;;4956228;29;20124;-83
2021/07/29 01:11:39;;;;;;;1.45;1.00;;;25.60;77.80;;;;;;4955672;29;20035;-80
2021/07/29 01:14:05;;;;;;;1.25;1.15;;;25.80;79.50;;;;;;4938088;29;20034;-82
2021/07/29 01:16:31;;;;;;;4.07;2.42;;;25.80;80.40;;;;;;4938471;29;20043;-79
2021/07/29 01:18:58;;;;;;;1.33;1.23;;;25.80;81.30;;;;;;4955592;29;20039;-84
2021/07/29 01:21:37;;;;;;;1.63;1.52;;;25.80;81.80;;;;;;4955586;29;20037;-83
2021/07/29 01:24:04;;;;;;;32.97;1.52;;;25.70;83.10;;;;;;4955202;29;20106;-88
2021/07/29 01:26:30;;;;;;;0.90;0.90;;;25.80;83.70;;;;;;4938290;29;20047;-83
2021/07/29 01:28:57;;;;;;;4.47;2.63;;;25.70;82.10;;;;;;4938026;29;20055;-80
2021/07/29 01:31:23;;;;;;;14.55;3.65;;;25.50;82.00;;;;;;4955460;29;20047;-79
2021/07/29 01:33:50;;;;;;;2.35;1.95;;;25.50;83.80;;;;;;4955256;29;20039;-81
2021/07/29 01:36:15;;;;;;;4.30;2.60;;;25.70;84.50;;;;;;4955475;29;20043;-80
2021/07/29 01:38:41;;;;;;;0.88;0.88;;;25.70;84.40;;;;;;4955446;29;20027;-81
2021/07/29 01:41:07;;;;;;;1.83;1.73;;;25.60;84.40;;;;;;4955202;29;20039;-79
2021/07/29 01:43:33;;;;;;;1.52;1.42;;;25.60;84.80;;;;;;4954993;29;20036;-83
2021/07/29 01:46:00;;;;;;;5.38;3.17;;;25.50;85.10;;;;;;4954742;28;20039;-79
2021/07/29 01:48:26;;;;;;;0.90;0.90;;;25.20;87.30;;;;;;4937732;29;20040;-81
2021/07/29 01:50:52;;;;;;;2.40;1.92;;;25.40;87.50;;;;;;4954913;29;20106;-84
2021/07/29 01:53:18;;;;;;;4.32;1.83;;;25.50;87.70;;;;;;4954823;29;20438;-84
2021/07/29 01:55:45;;;;;;;1.67;1.58;;;25.30;88.70;;;;;;4954780;28;20483;-83
2021/07/29 01:58:12;;;;;;;1.58;1.38;;;25.20;90.00;;;;;;4954691;29;20043;-78
2021/07/29 02:00:40;;;;;;;1.35;1.23;;;24.90;90.80;;;;;;4954733;29;20039;-79
2021/07/29 02:03:06;;;;;;;0.70;0.70;;;25.00;91.10;;;;;;4937823;29;20094;-80
2021/07/29 02:05:32;;;;;;;3.40;2.25;;;24.80;91.70;;;;;;4954959;29;20495;-79
2021/07/29 02:07:58;;;;;;;0.70;0.70;;;25.00;92.20;;;;;;4954335;29;20067;-79
2021/07/29 02:10:24;;;;;;;0.93;0.93;;;25.10;92.10;;;;;;4954422;29;20174;-79
2021/07/29 02:12:50;;;;;;;3.70;1.85;;;25.00;92.60;;;;;;4955059;29;20114;-80
2021/07/29 02:15:16;;;;;;;3.42;2.10;;;25.00;92.70;;;;;;4954280;29;20032;-85
2021/07/29 02:17:42;;;;;;;1.00;1.00;;;24.90;93.10;;;;;;4954809;29;20035;-86
2021/07/29 02:20:08;;;;;;;2.90;2.13;;;24.90;93.40;;;;;;4954707;29;20062;-85
2021/07/29 02:22:34;;;;;;;1.05;1.05;;;24.80;94.00;;;;;;4954218;29;20527;-80
2021/07/29 02:25:00;;;;;;;2.92;2.35;;;24.80;94.30;;;;;;4952893;29;20032;-83
2021/07/29 02:27:26;;;;;;;0.90;0.90;;;24.80;94.70;;;;;;4937081;29;20126;-79
2021/07/29 02:29:53;;;;;;;4.30;2.45;;;24.80;95.00;;;;;;4953728;29;20075;-80
2021/07/29 02:32:20;;;;;;;3.45;2.30;;;24.60;95.60;;;;;;4954340;29;20102;-89
2021/07/29 02:34:46;;;;;;;4.28;3.15;;;24.40;96.30;;;;;;4953972;29;20035;-81
2021/07/29 02:37:12;;;;;;;3.08;2.08;;;24.40;96.90;;;;;;4953890;29;20094;-82
2021/07/29 02:39:40;;;;;;;2.72;2.53;;;24.50;97.00;;;;;;4953455;29;20074;-82
2021/07/29 02:42:07;;;;;;;1.35;1.25;;;24.60;96.60;;;;;;4937115;29;20039;-85
2021/07/29 02:44:33;;;;;;;2.25;2.05;;;24.50;96.30;;;;;;4953833;29;20031;-79
2021/07/29 02:46:59;;;;;;;0.85;0.85;;;24.40;96.50;;;;;;4936747;29;20035;-79
2021/07/29 02:49:25;;;;;;;27.33;1.88;;;24.30;95.80;;;;;;4953636;29;20399;-79
2021/07/29 02:51:51;;;;;;;1.90;1.77;;;24.20;96.00;;;;;;4953824;29;20074;-80
2021/07/29 02:54:17;;;;;;;2.35;2.15;;;24.20;95.60;;;;;;4953734;29;20118;-83
2021/07/29 02:56:42;;;;;;;2.47;2.28;;;24.20;95.40;;;;;;4953374;28;20107;-82
2021/07/29 02:59:08;;;;;;;2.08;1.88;;;24.30;95.00;;;;;;4953338;29;20565;-84
2021/07/29 03:01:34;;;;;;;1.77;1.17;;;24.30;94.30;;;;;;4953937;29;20031;-86
2021/07/29 03:04:00;;;;;;;14.15;3.40;;;24.20;94.00;;;;;;4953704;29;20126;-89
2021/07/29 03:06:25;;;;;;;1.45;1.35;;;23.90;94.80;;;;;;4936756;29;20190;-84
2021/07/29 03:08:51;;;;;;;1.05;1.02;;;23.90;95.40;;;;;;4953142;29;20479;-82
2021/07/29 03:11:17;;;;;;;1.90;1.80;;;23.50;95.90;;;;;;4954297;29;20042;-80
2021/07/29 03:13:43;;;;;;;1.73;1.63;;;23.90;95.70;;;;;;4953915;29;20050;-78
2021/07/29 03:16:08;;;;;;;3.33;1.77;;;24.00;95.00;;;;;;4953756;29;20442;-82
2021/07/29 03:18:34;;;;;;;5.15;1.70;;;24.00;94.50;;;;;;4954129;29;20508;-78
2021/07/29 03:21:00;;;;;;;6.40;3.85;;;23.80;95.70;;;;;;4936457;29;20039;-80
2021/07/29 03:23:27;;;;;;;2.00;1.70;;;23.80;96.10;;;;;;4953422;29;20028;-79
2021/07/29 03:25:54;;;;;;;2.90;1.95;;;24.00;95.90;;;;;;4953690;29;20071;-85
2021/07/29 03:28:20;;;;;;;3.13;2.88;;;24.10;95.60;;;;;;4953303;29;20104;-82
2021/07/29 03:30:47;;;;;;;1.85;1.40;;;24.10;95.50;;;;;;4953465;29;20035;-77
2021/07/29 03:33:13;;;;;;;1.05;1.02;;;24.00;95.40;;;;;;4936106;29;20563;-79
2021/07/29 03:35:40;;;;;;;0.90;0.90;;;24.00;96.10;;;;;;4936380;29;20055;-80
2021/07/29 03:38:08;;;;;;;0.82;0.82;;;24.00;96.40;;;;;;4936013;29;20050;-83
2021/07/29 03:40:35;;;;;;;1.92;1.73;;;24.00;96.90;;;;;;4953304;29;20114;-79
2021/07/29 03:43:04;;;;;;;1.95;1.60;;;23.90;96.20;;;;;;4953562;29;20030;-84
2021/07/29 03:45:30;;;;;;;1.95;1.75;;;23.80;96.90;;;;;;4953411;29;20372;-81
2021/07/29 03:47:57;;;;;;;1.25;1.15;;;23.80;97.80;;;;;;4953438;29;20043;-86
2021/07/29 03:50:23;;;;;;;2.22;1.92;;;23.80;97.90;;;;;;4953215;29;20043;-85
2021/07/29 03:52:49;;;;;;;2.28;2.13;;;23.70;97.90;;;;;;4953332;29;20110;-80
2021/07/29 03:55:14;;;;;;;1.00;1.00;;;23.70;98.00;;;;;;4953337;28;20114;-79
2021/07/29 03:57:40;;;;;;;1.85;1.70;;;23.70;98.40;;;;;;4936438;29;20130;-82
2021/07/29 04:00:07;;;;;;;1.27;1.17;;;23.70;97.80;;;;;;4953182;29;20090;-79
2021/07/29 04:02:34;;;;;;;1.02;1.02;;;23.80;97.70;;;;;;4953684;29;20039;-80
2021/07/29 04:05:00;;;;;;;0.88;0.88;;;23.70;98.30;;;;;;4953458;29;20035;-86
2021/07/29 04:07:26;;;;;;;4.90;2.30;;;23.70;98.70;;;;;;4953147;29;20028;-80
2021/07/29 04:09:52;;;;;;;1.92;1.73;;;23.70;99.20;;;;;;4938875;29;20038;-80
2021/07/29 04:12:18;;;;;;;2.25;2.08;;;23.80;99.50;;;;;;4939868;29;20463;-80
2021/07/29 04:14:44;;;;;;;1.42;1.33;;;23.80;99.60;;;;;;4956614;29;20431;-79
2021/07/29 04:17:10;;;;;;;4.93;1.35;;;23.90;99.20;;;;;;4957381;29;20042;-79
2021/07/29 04:19:36;;;;;;;1.52;1.42;;;24.00;99.30;;;;;;4939469;29;20035;-80
2021/07/29 04:22:05;;;;;;;5.13;4.43;;;23.90;99.10;;;;;;4957072;29;20032;-84
2021/07/29 04:24:31;;;;;;;0.85;0.85;;;24.10;98.80;;;;;;4939188;29;20032;-80
2021/07/29 04:26:58;;;;;;;1.92;1.55;;;24.00;98.80;;;;;;4938854;29;20130;-82
2021/07/29 04:29:25;;;;;;;2.17;1.98;;;23.00;99.90;;;;;;4956546;29;20432;-87
2021/07/29 04:31:51;;;;;;;2.15;1.65;;;23.60;99.90;;;;;;4956575;29;20456;-79
2021/07/29 04:34:17;;;;;;;4.07;2.83;;;24.00;99.70;;;;;;4938759;29;20502;-80
2021/07/29 04:36:44;;;;;;;1.90;1.77;;;24.10;98.90;;;;;;4956636;29;20466;-81
2021/07/29 04:39:10;;;;;;;2.50;1.85;;;24.30;98.80;;;;;;4956268;29;20138;-82
2021/07/29 04:41:40;;;;;;;2.17;2.03;;;24.30;98.90;;;;;;4938908;29;20127;-85
2021/07/29 04:44:10;;;;;;;3.75;2.78;;;24.30;99.10;;;;;;4956116;29;20032;-87
2021/07/29 04:46:37;;;;;;;2.35;1.55;;;24.50;99.00;;;;;;4956438;29;20043;-89
2021/07/29 04:49:04;;;;;;;1.40;1.30;;;24.60;98.80;;;;;;4938726;29;20044;-82
2021/07/29 04:51:31;;;;;;;1.45;1.35;;;24.60;98.20;;;;;;4955893;29;20047;-79
2021/07/29 04:53:57;;;;;;;2.33;2.17;;;24.50;98.30;;;;;;4955753;29;20034;-83
2021/07/29 04:56:23;;;;;;;1.77;1.67;;;24.70;97.90;;;;;;4938289;29;20130;-84
2021/07/29 04:58:49;;;;;;;4.68;3.55;;;24.80;97.30;;;;;;4938766;29;20051;-89
2021/07/29 05:01:16;;;;;;;0.80;0.80;;;24.70;97.20;;;;;;4938324;29;20038;-82
2021/07/29 05:03:42;;;;;;;1.38;1.08;;;24.70;96.90;;;;;;4955792;29;20039;-82
2021/07/29 05:06:08;;;;;;;2.58;2.38;;;24.80;96.70;;;;;;4955731;29;20034;-79
2021/07/29 05:08:35;;;;;;;4.00;3.03;;;24.80;97.00;;;;;;4955471;29;20089;-83
2021/07/29 05:11:03;;;;;;;0.80;0.80;;;24.90;96.90;;;;;;4937896;29;20395;-85
2021/07/29 05:13:28;;;;;;;1.30;1.20;;;24.80;96.70;;;;;;4955498;29;20035;-82
2021/07/29 05:15:54;;;;;;;1.00;1.00;;;24.80;96.00;;;;;;4955551;28;20046;-82
2021/07/29 05:18:20;;;;;;;2.40;2.20;;;24.80;95.40;;;;;;4955306;29;20314;-80
2021/07/29 05:20:46;;;;;;;2.63;2.40;;;24.30;96.40;;;;;;4954548;28;20031;-79
2021/07/29 05:23:12;;;;;;;0.98;0.98;;;24.50;96.50;;;;;;4955450;29;20035;-85
2021/07/29 05:25:38;;;;;;;10.40;2.70;;;24.60;96.20;;;;;;4938063;29;20031;-89
2021/07/29 05:28:04;;;;;;;2.45;2.28;;;24.30;96.80;;;;;;4938166;29;20042;-89
2021/07/29 05:30:29;;;;;;;1.17;1.10;;;24.50;96.50;;;;;;4955009;29;20195;-87
2021/07/29 05:32:55;;;;;;;1.52;1.42;;;24.70;96.40;;;;;;4955773;29;20047;-83
2021/07/29 05:35:21;;;;;;;1.02;1.02;;;25.00;95.90;;;;;;4955042;29;20110;-81
2021/07/29 05:37:47;;;;;;;1.98;1.30;;;25.00;95.80;;;;;;4955237;29;20428;-82
2021/07/29 05:40:12;;;;;;;2.30;2.17;;;25.20;95.80;;;;;;4954830;29;20031;-84
2021/07/29 05:42:38;;;;;;;2.13;1.95;;;25.40;95.50;;;;;;4955111;29;20439;-82
2021/07/29 05:45:04;;;;;;;1.52;1.42;;;25.50;95.60;;;;;;4955148;29;20471;-88
2021/07/29 05:47:30;;;;;;;3.22;2.35;;;25.60;95.60;;;;;;4955434;29;20054;-81
2021/07/29 05:49:55;;;;;;;2.53;2.22;;;25.80;95.30;;;;;;4937680;29;20043;-84
2021/07/29 05:52:21;;;;;;;3.50;2.63;;;25.50;95.50;;;;;;4954842;29;20126;-81
2021/07/29 05:54:47;;;;;;;1.17;1.10;;;25.30;95.60;;;;;;4955090;29;20042;-82
2021/07/29 05:57:13;;;;;;;2.13;1.75;;;25.60;95.40;;;;;;4954399;28;20062;-85
2021/07/29 05:59:38;;;;;;;1.73;1.63;;;25.20;95.40;;;;;;4954718;29;20039;-86
2021/07/29 06:02:05;;;;;;;1.17;0.95;;;25.20;95.60;;;;;;4955105;29;20041;-90
2021/07/29 06:04:31;;;;;;;1.13;1.02;;;25.10;95.50;;;;;;4954689;29;20062;-84
2021/07/29 06:06:56;;;;;;;6.15;2.20;;;25.30;95.20;;;;;;4954699;29;20384;-86
2021/07/29 06:09:22;;;;;;;16.35;3.10;;;25.50;94.70;;;;;;4954615;29;20098;-84
2021/07/29 06:11:48;;;;;;;0.90;0.90;;;25.60;94.50;;;;;;4954835;29;20047;-82
2021/07/29 06:14:14;;;;;;;0.93;0.90;;;25.90;94.30;;;;;;4937235;29;20023;-87
2021/07/29 06:16:39;;;;;;;0.75;0.75;;;26.10;94.30;;;;;;4954878;29;20086;-79
2021/07/29 06:19:15;;;;;;;1.50;1.40;;;26.20;94.10;;;;;;4954190;29;20039;-86
2021/07/29 06:21:40;;;;;;;1.35;1.25;;;26.20;93.60;;;;;;4954120;29;20035;-81
2021/07/29 06:24:06;;;;;;;12.35;5.15;;;26.20;93.60;;;;;;4954318;29;20054;-81
2021/07/29 06:26:32;;;;;;;5.53;1.52;;;26.30;93.60;;;;;;4954293;29;20043;-79
2021/07/29 06:28:59;;;;;;;9.90;2.75;;;26.30;93.70;;;;;;4953086;29;20038;-84
2021/07/29 06:31:25;;;;;;;1.83;1.70;;;26.50;93.40;;;;;;4953644;28;20571;-87
2021/07/29 06:33:50;;;;;;;2.72;1.80;;;26.50;92.90;;;;;;4953664;29;20043;-79
2021/07/29 06:36:17;;;;;;;6.13;1.50;;;26.60;92.70;;;;;;4954163;29;20065;-81
2021/07/29 06:38:43;;;;;;;1.50;1.40;;;26.70;92.60;;;;;;4954347;29;20058;-87
2021/07/29 06:41:08;;;;;;;1.73;1.58;;;26.30;92.10;;;;;;4954720;29;20247;-85
2021/07/29 06:43:35;;;;;;;1.35;1.25;;;26.40;92.90;;;;;;4953839;29;20065;-83
2021/07/29 06:46:05;;;;;;;4.38;2.25;;;26.10;91.80;;;;;;4953451;29;20114;-84
2021/07/29 06:48:32;;;;;;;1.92;1.83;;;26.00;91.80;;;;;;4935357;29;20074;-85
2021/07/29 06:51:08;;;;;;;3.85;2.45;;;26.10;91.50;;;;;;4953636;29;20447;-85
2021/07/29 06:53:38;;;;;;;0.85;0.85;;;26.40;91.40;;;;;;4936680;29;20039;-85
2021/07/29 06:56:08;;;;;;;1.70;1.60;;;26.20;91.30;;;;;;4935560;29;20031;-83
2021/07/29 06:58:35;;;;;;;3.22;1.95;;;26.70;90.90;;;;;;4935982;29;20499;-85
2021/07/29 07:01:02;;;;;;;1.20;1.15;;;26.90;90.80;;;;;;4936315;29;20038;-80
2021/07/29 07:03:29;;;;;;;2.55;2.35;;;27.10;91.20;;;;;;4953854;29;20039;-81
2021/07/29 07:06:01;;;;;;;3.60;1.52;;;27.10;90.40;;;;;;4936846;29;20059;-80
2021/07/29 07:08:27;;;;;;;0.60;0.60;;;27.20;90.10;;;;;;4953685;29;20042;-79
2021/07/29 07:10:53;;;;;;;3.42;1.67;;;27.20;90.10;;;;;;4953311;29;20047;-82
2021/07/29 07:13:19;;;;;;;2.15;1.58;;;27.30;90.40;;;;;;4952921;29;20043;-83
2021/07/29 07:15:44;;;;;;;4.70;3.13;;;27.40;90.80;;;;;;4936330;29;20036;-81
2021/07/29 07:18:10;;;;;;;1.60;1.35;;;27.50;90.40;;;;;;4936407;29;20225;-83
2021/07/29 07:20:36;;;;;;;3.10;2.35;;;27.50;89.80;;;;;;4935814;29;20082;-81
2021/07/29 07:23:02;;;;;;;1.00;0.90;;;27.50;89.10;;;;;;4952162;29;20476;-78
2021/07/29 07:25:28;;;;;;;2.58;2.38;;;27.60;88.90;;;;;;4936130;29;20361;-85
2021/07/29 07:27:53;;;;;;;0.77;0.77;;;27.60;88.90;;;;;;4936178;29;20031;-85
2021/07/29 07:30:19;;;;;;;0.93;0.90;;;27.70;88.40;;;;;;4953140;29;20390;-83
2021/07/29 07:32:45;;;;;;;1.30;1.20;;;27.80;86.80;;;;;;4953618;29;20046;-82
2021/07/29 07:35:11;;;;;;;1.13;0.85;;;27.80;87.00;;;;;;4952701;29;20035;-82
2021/07/29 07:37:39;;;;;;;0.98;0.95;;;28.00;87.10;;;;;;4953655;29;20124;-80
2021/07/29 07:40:08;;;;;;;3.47;2.42;;;28.00;86.10;;;;;;4953124;29;20037;-83
2021/07/29 07:42:34;;;;;;;1.40;1.30;;;28.10;87.20;;;;;;4953134;28;20029;-80
2021/07/29 07:44:59;;;;;;;1.30;1.20;;;28.30;85.70;;;;;;4956474;29;20028;-79
2021/07/29 07:47:26;;;;;;;1.75;1.27;;;28.30;85.20;;;;;;4957295;29;20067;-80
2021/07/29 07:49:52;;;;;;;1.20;1.10;;;28.30;85.20;;;;;;4956437;29;20531;-85
2021/07/29 07:52:18;;;;;;;1.13;1.02;;;28.40;84.70;;;;;;4956312;29;20134;-84
2021/07/29 07:54:43;;;;;;;2.63;0.68;;;28.30;83.70;;;;;;4956156;28;20039;-83
2021/07/29 07:57:09;;;;;;;1.35;1.25;;;28.40;82.70;;;;;;4956239;29;20155;-81
2021/07/29 07:59:36;;;;;;;7.80;1.33;;;28.40;81.90;;;;;;4956972;29;20031;-81
2021/07/29 08:02:03;;;;;;;1.23;1.13;;;28.50;80.70;;;;;;4956657;29;20043;-81
2021/07/29 08:04:29;;;;;;;1.42;1.33;;;28.60;81.00;;;;;;4956512;29;20031;-81
2021/07/29 08:06:55;;;;;;;10.73;2.40;;;28.60;79.90;;;;;;4956388;29;20086;-80
2021/07/29 08:09:20;;;;;;;0.63;0.63;;;28.70;79.40;;;;;;4939286;29;20042;-81
2021/07/29 08:11:46;;;;;;;0.73;0.73;;;28.70;78.60;;;;;;4956190;29;20043;-80
2021/07/29 08:14:12;;;;;;;1.33;1.05;;;28.80;78.20;;;;;;4956223;29;20031;-81
2021/07/29 08:16:38;;;;;;;4.65;1.80;;;28.80;78.30;;;;;;4956892;29;20099;-82
2021/07/29 08:19:04;;;;;;;28.10;2.60;;;28.90;79.40;;;;;;4956564;29;20027;-81
2021/07/29 08:21:30;;;;;;;8.30;2.55;;;29.00;79.50;;;;;;4955993;29;20039;-83
2021/07/29 08:23:56;;;;;;;1.05;1.00;;;29.20;78.90;;;;;;4938788;29;20035;-81
2021/07/29 08:26:22;;;;;;;0.47;0.47;;;29.20;77.70;;;;;;4956315;29;20047;-85
2021/07/29 08:28:51;;;;;;;1.20;0.80;;;29.30;77.80;;;;;;4956126;29;20063;-84
2021/07/29 08:31:18;;;;;;;4.88;0.80;;;29.20;76.50;;;;;;4956182;28;20082;-83
2021/07/29 08:33:44;;;;;;;2.85;1.70;;;29.30;76.70;;;;;;4955854;29;20044;-81
2021/07/29 08:36:17;;;;;;;0.63;0.63;;;29.30;76.70;;;;;;4938696;29;20047;-84
2021/07/29 08:38:44;;;;;;;4.35;2.10;;;29.50;77.00;;;;;;4938603;29;20035;-82
2021/07/29 08:41:10;;;;;;;1.58;1.45;;;29.30;74.50;;;;;;4955935;29;20038;-82
2021/07/29 08:43:37;;;;;;;1.70;1.27;;;29.40;72.90;;;;;;4955538;29;20024;-85
2021/07/29 08:46:10;;;;;;;3.05;2.25;;;29.40;73.10;;;;;;4955707;29;20500;-85
2021/07/29 08:48:44;;;;;;;2.28;1.50;;;29.60;73.20;;;;;;4955771;29;20428;-81
2021/07/29 08:51:10;;;;;;;1.17;1.08;;;29.70;72.90;;;;;;4955637;29;20043;-85
2021/07/29 08:53:35;;;;;;;2.45;2.05;;;29.90;72.30;;;;;;4938270;29;20046;-82
2021/07/29 08:56:04;;;;;;;15.55;3.45;;;29.90;72.30;;;;;;4954211;28;20023;-83
2021/07/29 08:58:30;;;;;;;0.85;0.85;;;30.20;72.50;;;;;;4955334;29;20790;-84
2021/07/29 09:01:09;;;;;;;1.40;0.93;;;30.30;71.90;;;;;;4938755;28;20055;-84
2021/07/29 09:03:36;;;;;;;2.33;2.00;;;30.40;71.40;;;;;;4954948;29;20051;-85
2021/07/29 09:06:13;;;;;;;1.17;1.08;;;30.50;71.40;;;;;;4938652;29;20421;-85
2021/07/29 09:08:50;;;;;;;1.00;0.82;;;30.70;71.40;;;;;;4955609;29;20047;-81
2021/07/29 09:11:36;;;;;;;0.93;0.82;;;30.60;70.90;;;;;;4938138;29;20058;-85
2021/07/29 09:14:12;;;;;;;11.60;2.47;;;30.90;71.10;;;;;;4954848;29;20028;-82
2021/07/29 09:17:03;;;;;;;0.88;0.73;;;31.10;70.50;;;;;;4955688;29;20035;-85
2021/07/29 09:19:32;;;;;;;1.60;1.15;;;31.50;70.20;;;;;;4938186;29;20043;-84
2021/07/29 09:22:16;;;;;;;8.85;3.83;;;31.50;69.00;;;;;;4938145;29;20082;-86
2021/07/29 09:25:08;;;;;;;2.47;1.77;;;31.70;68.80;;;;;;4954864;29;20043;-85
2021/07/29 09:27:37;;;;;;;2.92;2.58;;;31.90;68.40;;;;;;4955315;29;20468;-86
2021/07/29 09:30:12;;;;;;;1.15;1.05;;;32.10;68.00;;;;;;4954780;29;20122;-86
2021/07/29 09:32:56;;;;;;;1.25;1.15;;;32.30;67.80;;;;;;4955585;29;20046;-80
2021/07/29 09:35:44;;;;;;;3.10;1.77;;;32.50;68.30;;;;;;4954765;29;20139;-86
2021/07/29 09:38:27;;;;;;;2.47;1.85;;;32.70;68.10;;;;;;4954817;29;20070;-82
2021/07/29 09:41:01;;;;;;;1.08;0.70;;;32.90;66.80;;;;;;4954968;29;20039;-82
2021/07/29 09:43:32;;;;;;;1.98;1.50;;;33.00;65.70;;;;;;4954919;29;20110;-85
2021/07/29 09:46:00;;;;;;;2.40;1.65;;;33.10;64.60;;;;;;4954667;29;20035;-84
2021/07/29 09:48:26;;;;;;;1.92;1.73;;;33.10;65.40;;;;;;4937650;29;20541;-87
2021/07/29 09:50:59;;;;;;;2.60;1.42;;;33.20;65.50;;;;;;4954669;29;20114;-85
2021/07/29 09:53:30;;;;;;;5.13;1.70;;;33.40;65.20;;;;;;4954456;29;20031;-82
2021/07/29 09:55:56;;;;;;;2.40;1.42;;;33.50;65.10;;;;;;4955000;28;20467;-87
2021/07/29 09:58:21;;;;;;;0.93;0.75;;;33.60;66.20;;;;;;4954329;29;20515;-82
2021/07/29 10:00:47;;;;;;;2.38;1.88;;;33.90;64.00;;;;;;4937434;29;20069;-84
2021/07/29 10:03:15;;;;;;;3.08;1.83;;;34.10;63.60;;;;;;4954598;29;20041;-85
2021/07/29 10:05:58;;;;;;;0.52;0.52;;;34.10;62.10;;;;;;4954218;28;20086;-82
2021/07/29 10:08:32;;;;;;;1.33;0.93;;;34.20;62.00;;;;;;4937000;29;20086;-85
2021/07/29 10:11:04;;;;;;;0.65;0.65;;;34.30;62.20;;;;;;4937203;29;20424;-82
2021/07/29 10:13:37;;;;;;;1.65;1.55;;;34.50;62.00;;;;;;4936771;29;20086;-82
2021/07/29 10:16:09;;;;;;;1.10;0.95;;;34.60;61.90;;;;;;4954450;29;20114;-81
2021/07/29 10:18:53;;;;;;;0.70;0.68;;;34.80;62.30;;;;;;4937053;29;20090;-82
2021/07/29 10:21:32;;;;;;;0.30;0.30;;;34.80;57.30;;;;;;4954354;29;20053;-82
2021/07/29 10:24:02;;;;;;;3.47;1.95;;;34.60;56.90;;;;;;4936675;29;20036;-83
2021/07/29 10:26:29;;;;;;;1.10;1.00;;;34.80;56.10;;;;;;4954091;29;20023;-81
2021/07/29 10:29:30;;;;;;;1.85;1.75;;;34.80;55.60;;;;;;4953840;29;20035;-82
2021/07/29 10:31:58;;;;;;;1.95;1.67;;;34.60;56.70;;;;;;4903216;29;20047;-82
2021/07/29 10:34:32;;;;;;;0.40;0.40;;;34.90;56.70;;;;;;4936482;29;20102;-83
2021/07/29 10:37:05;;;;;;;1.83;1.58;;;35.00;56.90;;;;;;4936704;29;20494;-82
2021/07/29 10:39:31;;;;;;;0.98;0.85;;;34.90;56.50;;;;;;4953146;29;20073;-86
2021/07/29 10:41:59;;;;;;;0.93;0.85;;;35.30;56.90;;;;;;4953866;29;20039;-86
2021/07/29 10:44:34;;;;;;;0.38;0.38;;;35.50;56.50;;;;;;4953595;29;20522;-82
2021/07/29 10:47:01;;;;;;;15.75;2.38;;;35.80;55.90;;;;;;4936740;29;20507;-80
2021/07/29 10:50:04;;;;;;;1.13;0.90;;;35.90;56.40;;;;;;4953448;29;20043;-82
2021/07/29 10:52:30;;;;;;;2.42;0.75;;;36.00;54.80;;;;;;4932159;29;20077;-81
2021/07/29 10:54:57;;;;;;;2.47;2.28;;;35.90;53.50;;;;;;4936099;29;20427;-81
2021/07/29 10:57:24;;;;;;;1.98;1.20;;;36.00;53.90;;;;;;4953188;29;20082;-81
2021/07/29 10:59:52;;;;;;;1.38;1.27;;;36.00;53.60;;;;;;4953512;29;20039;-81
2021/07/29 11:02:41;;;;;;;7.23;3.77;;;36.00;53.30;;;;;;4953792;29;20082;-82
2021/07/29 11:05:09;;;;;;;0.63;0.50;;;36.00;52.20;;;;;;4953629;29;20261;-81
2021/07/29 11:07:40;;;;;;;0.63;0.60;;;36.30;52.40;;;;;;4952474;29;20034;-82
2021/07/29 11:10:10;;;;;;;3.85;1.38;;;36.60;51.30;;;;;;4936028;29;20043;-81
2021/07/29 11:12:39;;;;;;;2.65;2.33;;;36.80;52.50;;;;;;4936356;29;20043;-83
2021/07/29 11:15:06;;;;;;;1.33;1.15;;;37.10;52.50;;;;;;4952699;29;20034;-80
2021/07/29 11:17:32;;;;;;;2.78;1.00;;;37.20;53.00;;;;;;4953771;28;20031;-82
2021/07/29 11:20:01;;;;;;;2.58;1.92;;;37.30;53.00;;;;;;4959480;28;20122;-82
2021/07/29 11:22:27;;;;;;;0.28;0.28;;;37.10;51.80;;;;;;4959566;29;20039;-81
2021/07/29 11:24:52;;;;;;;2.35;2.15;;;36.80;51.90;;;;;;4959306;29;20104;-81
2021/07/29 11:27:31;;;;;;;2.80;1.98;;;37.00;52.50;;;;;;4959324;29;20031;-81
2021/07/29 11:30:01;;;;;;;15.90;1.42;;;37.00;51.60;;;;;;4959624;28;20118;-81
2021/07/29 11:32:41;;;;;;;6.75;1.48;;;37.20;50.40;;;;;;4942259;29;20050;-82
2021/07/29 11:35:10;;;;;;;;;;;37.30;50.80;;;;;;4958512;29;20039;-80
2021/07/29 11:37:38;;;;;;;10.00;2.72;;;37.30;50.10;;;;;;4959478;28;19912;-82
2021/07/29 11:40:06;;;;;;;4.40;1.13;;;37.30;50.20;;;;;;4942207;29;20035;-81
2021/07/29 11:42:38;;;;;;;2.58;1.92;;;37.60;50.20;;;;;;4942101;29;20035;-82
2021/07/29 11:45:19;;;;;;;0.57;0.57;;;37.80;49.30;;;;;;4942065;29;20055;-82
2021/07/29 11:47:45;;;;;;;0.30;0.30;;;37.80;47.80;;;;;;4958993;29;20039;-82
2021/07/29 11:50:10;;;;;;;1.75;1.27;;;37.70;47.70;;;;;;4959743;28;20066;-82
2021/07/29 11:52:50;;;;;;;1.35;0.95;;;38.00;48.40;;;;;;4959481;29;20407;-81
2021/07/29 11:55:16;;;;;;;1.40;1.30;;;38.30;48.30;;;;;;4941786;29;20036;-83
2021/07/29 11:57:42;;;;;;;4.93;2.15;;;38.30;47.10;;;;;;4959378;28;20043;-81
2021/07/29 12:00:13;;;;;;;0.43;0.40;;;38.50;46.30;;;;;;4959141;29;20063;-79
2021/07/29 12:02:39;;;;;;;0.90;0.60;;;38.50;46.30;;;;;;4959545;28;20099;-81
2021/07/29 12:05:06;;;;;;;0.28;0.28;;;38.60;45.50;;;;;;4959268;29;20040;-82
2021/07/29 12:07:35;;;;;;;8.50;1.38;;;38.50;45.10;;;;;;4959139;28;20475;-81
2021/07/29 12:10:01;;;;;;;1.83;1.55;;;38.60;45.10;;;;;;4958923;29;20031;-84
2021/07/29 12:12:27;;;;;;;1.10;1.00;;;38.60;45.20;;;;;;4942330;29;20451;-85
2021/07/29 12:14:53;;;;;;;1.98;1.23;;;38.40;43.90;;;;;;4959171;28;20488;-81
2021/07/29 12:17:20;;;;;;;2.63;1.98;;;38.30;43.60;;;;;;4959354;29;20036;-81
2021/07/29 12:19:58;;;;;;;2.25;1.55;;;38.20;44.00;;;;;;4941884;29;20036;-82
2021/07/29 12:22:26;;;;;;;2.42;1.60;;;38.30;43.40;;;;;;4958840;28;20034;-82
2021/07/29 12:24:52;;;;;;;1.15;0.88;;;38.20;42.90;;;;;;4959070;29;20031;-84
2021/07/29 12:27:19;;;;;;;7.70;1.75;;;38.50;42.70;;;;;;4959229;29;20419;-82
2021/07/29 12:29:49;;;;;;;2.38;1.25;;;38.80;42.60;;;;;;4940644;29;20042;-81
2021/07/29 12:32:19;;;;;;;0.40;0.40;;;39.00;42.80;;;;;;4938526;29;20047;-81
2021/07/29 12:34:46;;;;;;;3.97;1.98;;;39.10;42.70;;;;;;4938775;29;20058;-82
2021/07/29 12:37:12;;;;;;;1.48;1.13;;;38.90;42.60;;;;;;4938934;29;20423;-81
2021/07/29 12:39:40;;;;;;;0.65;0.50;;;38.90;42.60;;;;;;4938638;29;20474;-82
2021/07/29 12:42:25;;;;;;;0.50;0.47;;;38.90;42.60;;;;;;4938748;29;20463;-81
2021/07/29 12:44:59;;;;;;;1.17;0.90;;;39.30;42.50;;;;;;4955799;29;20035;-82
2021/07/29 12:47:25;;;;;;;4.25;2.15;;;39.50;42.50;;;;;;4938851;29;20043;-81
2021/07/29 12:49:51;;;;;;;1.45;1.30;;;39.70;42.00;;;;;;4955587;29;20113;-82
2021/07/29 12:52:19;;;;;;;2.17;1.17;;;39.80;42.50;;;;;;4938407;29;20044;-82
2021/07/29 12:55:08;;;;;;;9.07;4.70;;;39.70;41.40;;;;;;4955458;28;20028;-82